Air Sicilia Virtual Airways - Route

Air Sicilia Virtual Airways - SIC204L

( IT ) LIPR
Federico Fellini International Airport
RIMINI ( RMI )
plane_to ( IT ) LIPB
Bolzano Airport
BOLZANO ( BZO )
IVAO VFR ITALY 2018 - LEG: 13

AIRPORT NEAR NAVIGATION AIDS

Type Name Frequency
VORTAC Rimini 116200 KHZ
NDB Rimini 335 KHZ

METAR / TAF
LIPR 211650Z 25004KT 210V290 9999 FEW040 23/10 Q1010

RUNWAY INFORMATION

Runway Runway length Runway width Runway elevation Runway displaced threshold Runway heading
13 9828 148 21 1030 128
31 9828 148 39 1006 308

AIRPORT FREQUENCIES

Type Name Frequency
APP ROMAGNA AP 36.23 MHZ
APP ROMAGNA AP 118.15 MHZ
GCCD GND/CLNC D 121.6 MHZ
TWR TWR 119.1 MHZ

AIRPORT NEAR NAVIGATION AIDS

Type Name Frequency
NDB Bolzano 362 KHZ
VOR-DME Bolzano 117050 KHZ

METAR / TAF
LIPB 211650Z VRB02KT 9999 FEW080 BKN130 17/12 Q1010
LIPB 211100Z 2112/2212 VRB05KT 9999 SCT030 BKN070

RUNWAY INFORMATION

Runway Runway length Runway width Runway elevation Runway displaced threshold Runway heading
01 4255 98 771 0 10
19 4255 98 788 200 190
01R 2290 66 773 0 10.6
19L 2290 66 782 0 190.6

AIRPORT FREQUENCIES

Type Name Frequency
AFIS INFO 120.6 MHZ

Flightplan

via RAVENNA - COMACCHIO - JESOLO - CORTINA D AMPEZZO

Air Sicilia Virtual Airways Fleets

AVAILABLE AIRCRAFTS for route at this time in Federico Fellini International Airport
C172 - Cessna 172 Skyhawk
( US ) Cessna

Aircraft in fleet: 13

C208 - Cessna 208 Caravan
( US ) Cessna

Aircraft in fleet: 13

PC12 - Pilatus PC12 Eagle
( CH ) Pilatus

Aircraft in fleet: 4

210 NM

Distance in nautical miles.

€ 200,00

Ticket price for this flight.

Nr. 13

Leg



12-11-2018
Aerosoft Airport Rio de Janeiro International V2.0 XP

L'Aeroporto Internazionale di Rio de Janeiro-Galeão (IATA: GIG, ICAO: SBGL), costruito nel 1952 nel quartiere di Ilha do Governador ed intitolato al musicista Antônio Carlos Jobim, è il principale aeroporto internazio ....


15-10-2018
Aerosoft A320 Family professional

La gamma di aeromobili A320 è una delle più comuni nei cieli. Questi aerei di linea a doppio-getto a corto e medio raggio si sono dimostrati convenienti, affidabili e prontamente disponibili, rendendoli le opzioni migl ....


10-10-2018
Motore critico ( Critical Engine )

Il motore critico di un velivolo ad ala fissa multi-motore è il motore che, in caso di guasto, influirebbe negativamente sulle prestazioni o sulla capacità di manovra di un aereo. Sui velivoli ad elica, vi è un ....


04-10-2018
Aerosoft Dortmund XP

Scopri il centro della regione della Ruhr su XPlane 11 - lo scenario Dortmund XP è una ricostruzione completa della città di Dortmund per il simulatore di volo targato Laminar. Oltre all'intera area urbana di Dortmu ....


07-08-2018
Aerosoft Professional Flight Planner PFPX

PFPX - Professional Flight Planner X - è un nuovo ed innovativo strumento di pianificazione del volo sviluppato da piloti e dispatcher del mondo reale. È un'aggiunta preziosa e realistica alla tua esperienza di simulaz ....